Time;durP1;ratioP1;P1;durP2;ratioP2;P2;SDS_P1;SDS_P2;PMS_P1;PMS_P2;Temp;Humidity;BMP_temperature;BMP_pressure;BME280_temperature;BME280_humidity;BME280_pressure;Samples;Min_cycle;Max_cycle;Signal;HPM_P1;HPM_P2
2022/01/04 00:02:18;;;;;;;0.40;0.40;;;;;;;8.78;68.86;99223.16;103333;1274;140360;-70
2022/01/04 00:04:46;;;;;;;0.50;0.50;;;;;;;8.75;69.11;99221.16;104158;1274;110312;-69
2022/01/04 00:07:13;;;;;;;0.50;0.50;;;;;;;8.71;69.26;99218.34;104171;1274;138565;-69
2022/01/04 00:09:43;;;;;;;0.50;0.50;;;;;;;8.76;69.13;99221.51;104229;1274;95136;-69
2022/01/04 00:14:58;;;;;;;0.50;0.50;;;;;;;8.75;68.83;99224.01;104055;1274;140845;-69
2022/01/04 00:17:25;;;;;;;0.50;0.50;;;;;;;8.72;68.99;99219.00;103338;1274;109800;-69
2022/01/04 00:19:53;;;;;;;0.40;0.40;;;;;;;8.73;69.02;99216.81;103230;1273;140194;-69
2022/01/04 00:22:21;;;;;;;0.50;0.50;;;;;;;8.76;69.23;99211.08;103454;1274;95236;-69
2022/01/04 00:24:49;;;;;;;0.50;0.40;;;;;;;8.74;69.30;99207.27;103285;1274;108806;-69
2022/01/04 00:27:16;;;;;;;0.50;0.50;;;;;;;8.70;69.10;99210.23;103263;1274;139404;-70
2022/01/04 00:29:44;;;;;;;0.50;0.40;;;;;;;8.72;69.15;99209.98;103332;1274;95664;-68
2022/01/04 00:32:12;;;;;;;0.50;0.50;;;;;;;8.76;69.22;99207.86;103269;1273;139056;-69
2022/01/04 00:34:41;;;;;;;0.40;0.40;;;;;;;8.80;69.34;99205.06;103369;1274;109581;-68
2022/01/04 00:37:09;;;;;;;0.50;0.50;;;;;;;8.82;69.21;99208.52;103230;1274;139802;-69
2022/01/04 00:39:37;;;;;;;0.50;0.40;;;;;;;8.77;68.96;99205.88;103282;1274;95121;-69
2022/01/04 00:42:05;;;;;;;0.40;0.40;;;;;;;8.72;69.18;99203.41;103232;1274;95224;-69
2022/01/04 00:44:33;;;;;;;0.50;0.40;;;;;;;8.76;69.02;99200.77;103100;1274;140548;-68
2022/01/04 00:47:02;;;;;;;0.50;0.50;;;;;;;8.78;69.10;99202.31;103342;1274;109648;-69
2022/01/04 00:49:30;;;;;;;0.50;0.40;;;;;;;8.75;68.96;99200.66;103330;1274;140738;-69
2022/01/04 00:52:00;;;;;;;0.50;0.40;;;;;;;8.73;69.22;99198.61;103354;1274;95728;-69
2022/01/04 00:54:29;;;;;;;0.50;0.40;;;;;;;8.71;69.13;99193.90;103350;1274;108816;-69
2022/01/04 00:56:56;;;;;;;0.50;0.40;;;;;;;8.68;69.20;99194.38;103326;1274;138575;-70
2022/01/04 00:59:24;;;;;;;0.50;0.50;;;;;;;8.70;69.21;99189.17;103302;1274;95719;-70
2022/01/04 01:01:51;;;;;;;0.40;0.40;;;;;;;8.69;69.37;99183.39;103252;1274;137974;-69
2022/01/04 01:04:20;;;;;;;0.50;0.40;;;;;;;8.74;69.36;99173.60;104224;1274;109226;-70
2022/01/04 01:06:47;;;;;;;0.50;0.50;;;;;;;8.77;68.79;99178.63;104296;1274;110957;-70
2022/01/04 01:09:15;;;;;;;0.50;0.50;;;;;;;8.64;68.84;99177.35;103318;1274;138071;-69
2022/01/04 01:11:43;;;;;;;0.50;0.50;;;;;;;8.60;69.10;99174.67;103400;1274;95909;-69
2022/01/04 01:14:10;;;;;;;0.40;0.40;;;;;;;8.64;69.04;99177.88;103204;1274;140040;-69
2022/01/04 01:16:38;;;;;;;0.40;0.40;;;;;;;8.63;68.96;99180.23;103408;1274;111439;-68
2022/01/04 01:19:06;;;;;;;0.50;0.50;;;;;;;8.58;68.82;99177.58;103239;1274;139562;-69
2022/01/04 01:21:34;;;;;;;0.50;0.50;;;;;;;8.54;69.13;99171.89;103355;1274;95241;-68
2022/01/04 01:24:01;;;;;;;0.50;0.50;;;;;;;8.52;69.03;99165.79;103336;1274;108729;-71
2022/01/04 01:26:29;;;;;;;0.50;0.50;;;;;;;8.48;69.10;99166.46;104158;1274;139756;-69
2022/01/04 01:28:57;;;;;;;0.50;0.50;;;;;;;8.49;68.96;99168.38;104254;1274;95230;-69
2022/01/04 01:31:24;;;;;;;0.50;0.50;;;;;;;8.39;69.02;99166.42;103218;1274;138959;-69
2022/01/04 01:33:52;;;;;;;0.50;0.50;;;;;;;8.36;69.29;99163.33;103274;1274;107416;-70
2022/01/04 01:36:20;;;;;;;0.40;0.40;;;;;;;8.42;69.18;99161.89;104287;1274;109815;-69
2022/01/04 01:38:48;;;;;;;0.50;0.40;;;;;;;8.37;69.11;99163.31;104208;1274;137866;-69
2022/01/04 01:41:15;;;;;;;0.50;0.50;;;;;;;8.25;69.19;99159.86;103320;1274;95620;-70
2022/01/04 01:43:44;;;;;;;0.50;0.50;;;;;;;8.19;69.38;99154.92;103915;1274;140189;-70
2022/01/04 01:46:12;;;;;;;0.50;0.40;;;;;;;8.18;69.42;99152.31;103286;1274;109827;-68
2022/01/04 01:48:40;;;;;;;0.50;0.50;;;;;;;8.19;69.15;99150.71;103278;1274;95224;-67
2022/01/04 01:51:08;;;;;;;0.50;0.50;;;;;;;8.05;69.43;99148.36;103174;1274;139312;-69
2022/01/04 01:53:36;;;;;;;0.50;0.50;;;;;;;8.00;69.71;99148.02;103210;1274;107615;-70
2022/01/04 01:56:04;;;;;;;0.60;0.60;;;;;;;7.93;69.87;99147.56;104146;1273;138621;-69
2022/01/04 01:58:32;;;;;;;0.50;0.50;;;;;;;7.93;70.17;99145.98;104409;1271;95267;-67
2022/01/04 02:00:59;;;;;;;0.50;0.50;;;;;;;7.95;70.12;99143.59;103331;1271;96528;-67
2022/01/04 02:03:28;;;;;;;0.60;0.60;;;;;;;7.93;70.06;99144.92;103123;1271;140624;-67
2022/01/04 02:05:56;;;;;;;0.50;0.50;;;;;;;7.87;69.97;99141.41;103270;1271;107758;-67
2022/01/04 02:08:24;;;;;;;0.50;0.50;;;;;;;7.83;70.34;99140.64;104707;1271;138695;-68
2022/01/04 02:10:52;;;;;;;0.50;0.50;;;;;;;7.83;70.41;99143.50;103298;1271;95688;-71
2022/01/04 02:13:20;;;;;;;0.50;0.50;;;;;;;7.86;70.36;99140.39;103329;1272;138570;-70
2022/01/04 02:15:47;;;;;;;0.50;0.50;;;;;;;7.93;70.03;99146.85;103330;1271;110190;-70
2022/01/04 02:18:15;;;;;;;0.50;0.50;;;;;;;7.88;70.08;99144.02;103336;1271;95300;-69
2022/01/04 02:20:43;;;;;;;0.50;0.50;;;;;;;7.78;70.06;99140.50;103125;1271;140189;-69
2022/01/04 02:23:11;;;;;;;0.50;0.50;;;;;;;7.76;70.16;99140.92;103201;1271;108633;-69
2022/01/04 02:25:39;;;;;;;0.50;0.50;;;;;;;7.68;70.45;99136.06;103174;1271;139090;-69
2022/01/04 02:28:07;;;;;;;0.50;0.50;;;;;;;7.66;70.58;99134.38;103267;1271;95228;-69
2022/01/04 02:30:34;;;;;;;0.50;0.50;;;;;;;7.67;70.67;99131.49;103385;1271;95471;-69
2022/01/04 02:33:02;;;;;;;0.50;0.50;;;;;;;7.70;70.71;99134.22;103142;1271;140651;-69
2022/01/04 02:35:31;;;;;;;0.60;0.60;;;;;;;7.69;70.42;99132.32;103296;1271;110982;-69
2022/01/04 02:38:00;;;;;;;0.50;0.50;;;;;;;7.61;70.55;99128.71;103160;1271;139182;-71
2022/01/04 02:40:27;;;;;;;0.50;0.50;;;;;;;7.58;70.55;99127.96;104789;1274;96410;-71
2022/01/04 02:42:55;;;;;;;0.50;0.50;;;;;;;7.59;70.60;99130.40;104345;1271;108940;-70
2022/01/04 02:45:24;;;;;;;0.60;0.60;;;;;;;7.65;70.31;99127.52;104206;1271;138110;-69
2022/01/04 02:47:52;;;;;;;0.50;0.50;;;;;;;7.72;70.45;99120.92;104427;1271;96441;-69
2022/01/04 02:50:20;;;;;;;0.50;0.50;;;;;;;7.71;70.16;99117.58;104268;1271;140148;-69
2022/01/04 02:52:48;;;;;;;0.50;0.50;;;;;;;7.70;70.12;99115.32;103271;1271;107833;-69
2022/01/04 02:55:16;;;;;;;0.50;0.50;;;;;;;7.75;70.03;99107.75;103227;1271;140033;-67
2022/01/04 02:57:45;;;;;;;0.60;0.60;;;;;;;7.71;70.05;99105.23;103287;1271;96129;-68
2022/01/04 03:00:14;;;;;;;0.60;0.60;;;;;;;7.70;70.25;99108.62;103298;1271;95727;-67
2022/01/04 03:02:43;;;;;;;0.60;0.60;;;;;;;7.67;70.09;99106.05;103764;1271;139338;-69
2022/01/04 03:05:10;;;;;;;0.50;0.50;;;;;;;7.69;70.12;99101.94;103329;1273;109696;-69
2022/01/04 03:07:38;;;;;;;0.50;0.50;;;;;;;7.70;70.11;99096.59;104313;1271;139586;-67
2022/01/04 03:10:07;;;;;;;0.60;0.60;;;;;;;7.68;70.19;99094.01;103387;1271;96019;-67
2022/01/04 03:12:36;;;;;;;0.50;0.50;;;;;;;7.67;70.17;99094.42;103277;1271;108772;-68
2022/01/04 03:15:04;;;;;;;0.50;0.50;;;;;;;7.65;70.13;99093.61;103163;1268;139737;-71
2022/01/04 03:17:32;;;;;;;0.50;0.50;;;;;;;7.64;70.20;99091.86;103371;1271;95246;-68
2022/01/04 03:20:00;;;;;;;0.50;0.50;;;;;;;7.69;70.18;99088.88;103145;1271;137642;-68
2022/01/04 03:22:27;;;;;;;0.50;0.50;;;;;;;7.68;70.07;99084.14;103245;1271;109025;-68
2022/01/04 03:24:55;;;;;;;0.60;0.60;;;;;;;7.63;70.10;99084.14;103316;1271;110321;-69
2022/01/04 03:27:23;;;;;;;0.50;0.50;;;;;;;7.62;70.27;99081.35;103209;1271;138503;-71
2022/01/04 03:29:51;;;;;;;0.50;0.50;;;;;;;7.61;69.94;99080.48;103354;1271;95186;-69
2022/01/04 03:32:18;;;;;;;0.50;0.50;;;;;;;7.58;70.06;99079.73;103161;1271;139420;-69
2022/01/04 03:34:46;;;;;;;0.50;0.50;;;;;;;7.55;70.38;99075.26;103287;1271;110148;-70
2022/01/04 03:37:14;;;;;;;0.50;0.50;;;;;;;7.54;70.39;99074.55;103622;1271;140839;-69
2022/01/04 03:39:41;;;;;;;0.50;0.50;;;;;;;7.56;70.17;99069.38;103274;1271;95788;-69
2022/01/04 03:42:09;;;;;;;0.50;0.50;;;;;;;7.57;70.23;99066.88;103373;1271;109114;-71
2022/01/04 03:44:37;;;;;;;0.50;0.50;;;;;;;7.59;70.26;99066.24;103253;1271;139681;-69
2022/01/04 03:47:05;;;;;;;0.60;0.60;;;;;;;7.58;70.14;99063.81;103338;1271;96204;-70
2022/01/04 03:49:33;;;;;;;0.50;0.50;;;;;;;7.56;70.22;99058.95;104152;1271;138498;-68
2022/01/04 03:52:01;;;;;;;0.50;0.50;;;;;;;7.59;70.15;99059.91;107095;1271;108791;-69
2022/01/04 03:54:29;;;;;;;0.50;0.50;;;;;;;7.64;70.07;99055.66;107049;1271;109602;-69
2022/01/04 03:56:56;;;;;;;0.60;0.60;;;;;;;7.68;69.60;99054.80;107018;1271;138015;-69
2022/01/04 03:59:24;;;;;;;0.60;0.60;;;;;;;7.60;69.45;99049.41;107093;1271;94544;-69
2022/01/04 04:01:52;;;;;;;0.50;0.50;;;;;;;7.59;69.72;99052.14;106989;1270;138660;-70
2022/01/04 04:04:20;;;;;;;0.50;0.50;;;;;;;7.65;69.61;99046.96;104607;1271;109779;-70
2022/01/04 04:06:48;;;;;;;0.50;0.50;;;;;;;7.70;69.21;99043.08;104345;1271;95782;-69
2022/01/04 04:09:15;;;;;;;0.50;0.50;;;;;;;7.62;69.16;99047.95;104143;1271;137576;-69
2022/01/04 04:11:43;;;;;;;0.60;0.60;;;;;;;7.62;69.48;99050.07;103338;1271;109687;-70
2022/01/04 04:14:11;;;;;;;0.50;0.50;;;;;;;7.51;69.47;99049.55;103227;1271;140034;-68
2022/01/04 04:16:38;;;;;;;0.50;0.50;;;;;;;7.46;69.58;99050.48;103343;1272;95616;-71
2022/01/04 04:19:06;;;;;;;0.50;0.50;;;;;;;7.48;69.77;99052.01;103398;1270;95330;-69
2022/01/04 04:21:34;;;;;;;0.60;0.60;;;;;;;7.47;69.52;99051.83;103399;1271;139914;-67
2022/01/04 04:24:02;;;;;;;0.60;0.60;;;;;;;7.44;69.79;99045.06;103388;1271;109731;-70
2022/01/04 04:26:29;;;;;;;0.60;0.60;;;;;;;7.42;69.80;99040.37;103298;1271;139352;-66
2022/01/04 04:28:57;;;;;;;0.60;0.60;;;;;;;7.35;69.57;99041.50;103389;1270;95341;-69
2022/01/04 04:31:25;;;;;;;0.50;0.50;;;;;;;7.32;70.00;99042.65;104089;1271;138652;-68
2022/01/04 04:33:52;;;;;;;0.60;0.60;;;;;;;7.28;70.19;99045.98;103378;1271;110038;-68
2022/01/04 04:36:20;;;;;;;0.60;0.60;;;;;;;7.30;70.37;99047.30;103339;1271;95734;-67
2022/01/04 04:38:48;;;;;;;0.50;0.50;;;;;;;7.32;70.13;99041.39;103260;1271;139967;-68
2022/01/04 04:41:15;;;;;;;0.50;0.50;;;;;;;7.38;70.11;99039.42;103394;1271;108805;-69
2022/01/04 04:43:43;;;;;;;0.60;0.60;;;;;;;7.35;70.42;99037.60;103319;1271;138867;-70
2022/01/04 04:46:11;;;;;;;0.50;0.50;;;;;;;7.32;70.86;99037.88;103424;1271;95503;-69
2022/01/04 04:48:39;;;;;;;0.50;0.50;;;;;;;7.33;70.78;99034.14;103362;1271;95291;-69
2022/01/04 04:51:06;;;;;;;0.50;0.50;;;;;;;7.33;70.68;99030.42;103260;1271;138611;-69
2022/01/04 04:53:34;;;;;;;0.60;0.60;;;;;;;7.37;70.87;99024.30;103276;1271;109677;-69
2022/01/04 04:56:02;;;;;;;0.60;0.60;;;;;;;7.36;70.86;99029.80;103385;1271;139692;-68
2022/01/04 04:58:31;;;;;;;0.60;0.60;;;;;;;7.42;71.02;99028.20;103388;1271;95716;-69
2022/01/04 05:00:58;;;;;;;0.50;0.50;;;;;;;7.49;71.06;99023.71;103414;1271;109204;-68
2022/01/04 05:03:26;;;;;;;0.50;0.50;;;;;;;7.57;71.09;99019.86;103223;1271;137826;-69
2022/01/04 05:05:54;;;;;;;0.60;0.60;;;;;;;7.63;70.78;99018.77;103348;1271;96119;-69
2022/01/04 05:08:22;;;;;;;0.60;0.60;;;;;;;7.65;70.55;99020.29;103230;1271;138302;-69
2022/01/04 05:10:49;;;;;;;0.50;0.50;;;;;;;7.66;70.86;99019.04;103404;1271;108752;-70
2022/01/04 05:13:17;;;;;;;0.50;0.50;;;;;;;7.68;70.73;99016.83;104162;1271;138800;-68
2022/01/04 05:15:45;;;;;;;0.50;0.50;;;;;;;7.68;70.60;99015.05;103415;1271;96375;-68
2022/01/04 05:18:13;;;;;;;0.50;0.50;;;;;;;7.70;70.57;99019.23;103386;1271;95302;-69
2022/01/04 05:20:41;;;;;;;0.50;0.50;;;;;;;7.73;70.47;99017.88;103284;1271;138468;-69
2022/01/04 05:23:09;;;;;;;0.50;0.50;;;;;;;7.76;70.52;99015.98;103289;1271;109558;-70
2022/01/04 05:25:37;;;;;;;0.60;0.60;;;;;;;7.76;70.62;99019.36;103220;1271;139076;-69
2022/01/04 05:28:05;;;;;;;0.60;0.60;;;;;;;7.77;70.54;99016.67;107032;1271;93864;-69
2022/01/04 05:30:33;;;;;;;0.50;0.50;;;;;;;7.78;70.67;99017.86;103304;1271;109087;-71
2022/01/04 05:33:01;;;;;;;0.50;0.50;;;;;;;7.81;70.79;99016.17;103167;1271;138900;-67
2022/01/04 05:35:28;;;;;;;0.60;0.60;;;;;;;7.84;70.68;99014.98;103304;1271;97186;-67
2022/01/04 05:37:56;;;;;;;0.50;0.50;;;;;;;7.84;70.51;99013.76;103214;1271;140036;-67
2022/01/04 05:40:24;;;;;;;0.50;0.50;;;;;;;7.79;70.76;99011.45;103385;1271;107604;-67
2022/01/04 05:42:52;;;;;;;0.50;0.50;;;;;;;7.78;71.06;99001.07;103321;1271;109676;-68
2022/01/04 05:45:21;;;;;;;0.50;0.50;;;;;;;7.74;71.58;98997.67;103291;1271;138354;-67
2022/01/04 05:47:48;;;;;;;0.50;0.50;;;;;;;7.76;71.52;98993.39;103328;1271;95232;-69
2022/01/04 05:50:16;;;;;;;0.50;0.40;;;;;;;7.80;71.49;98995.52;103252;1271;138476;-69
2022/01/04 05:52:44;;;;;;;0.50;0.40;;;;;;;7.82;71.53;98992.98;103304;1271;109811;-69
2022/01/04 05:55:11;;;;;;;0.50;0.50;;;;;;;7.80;71.60;98992.34;103407;1271;95183;-70
2022/01/04 05:57:39;;;;;;;0.50;0.50;;;;;;;7.81;71.55;98987.73;103274;1271;140698;-68
2022/01/04 06:00:09;;;;;;;0.50;0.50;;;;;;;7.81;71.50;98987.55;103347;1271;109530;-70
2022/01/04 06:02:38;;;;;;;0.60;0.60;;;;;;;7.85;71.61;98988.80;103511;1271;138355;-69
2022/01/04 06:05:08;;;;;;;0.50;0.50;;;;;;;7.82;71.63;98983.60;103306;1271;95749;-68
2022/01/04 06:07:36;;;;;;;0.50;0.50;;;;;;;7.79;71.55;98973.13;103115;1271;140337;-68
2022/01/04 06:10:07;;;;;;;0.50;0.50;;;;;;;7.74;71.51;98965.02;103365;1271;108763;-68
2022/01/04 06:15:11;;;;;;;0.40;0.40;;;;;;;7.71;71.65;98967.42;104273;1271;138622;-69
2022/01/04 06:17:44;;;;;;;0.50;0.50;;;;;;;7.68;71.72;98973.72;104508;1271;95658;-69
2022/01/04 06:20:14;;;;;;;0.50;0.50;;;;;;;7.62;71.44;98984.19;103284;1271;138912;-70
2022/01/04 06:22:43;;;;;;;0.50;0.50;;;;;;;7.59;71.55;98984.33;107101;1271;110590;-70
2022/01/04 06:25:14;;;;;;;0.50;0.50;;;;;;;7.54;71.75;98984.31;107168;1271;93707;-69
2022/01/04 06:27:43;;;;;;;0.50;0.50;;;;;;;7.52;71.86;98984.01;104623;1271;139494;-70
2022/01/04 06:30:14;;;;;;;0.50;0.50;;;;;;;7.49;72.01;98980.42;104285;1271;107244;-68
2022/01/04 06:32:43;;;;;;;0.50;0.50;;;;;;;7.50;72.24;98979.14;103200;1274;139420;-70
2022/01/04 06:35:13;;;;;;;0.50;0.50;;;;;;;7.58;72.25;98979.06;103382;1271;95242;-69
2022/01/04 06:37:42;;;;;;;0.60;0.60;;;;;;;7.55;72.24;98970.33;104774;1271;139199;-70
2022/01/04 06:40:11;;;;;;;0.50;0.50;;;;;;;7.54;71.95;98969.29;104309;1271;109091;-70
2022/01/04 06:42:38;;;;;;;0.50;0.50;;;;;;;7.47;72.16;98965.33;104263;1271;112324;-68
2022/01/04 06:45:06;;;;;;;0.40;0.40;;;;;;;7.46;72.57;98969.40;103277;1271;138441;-68
2022/01/04 06:47:34;;;;;;;0.50;0.50;;;;;;;7.54;72.22;98972.80;103580;1271;95426;-70
2022/01/04 06:50:04;;;;;;;0.50;0.50;;;;;;;7.53;72.17;98977.80;103570;1271;139913;-70
2022/01/04 06:52:31;;;;;;;0.60;0.60;;;;;;;7.53;72.42;98978.86;104669;1271;109709;-70
2022/01/04 06:54:59;;;;;;;0.50;0.50;;;;;;;7.63;72.13;98983.98;104337;1271;95868;-70
2022/01/04 06:57:27;;;;;;;0.50;0.50;;;;;;;7.71;71.66;98977.14;103342;1271;140183;-66
2022/01/04 06:59:55;;;;;;;0.50;0.50;;;;;;;7.68;71.73;98976.20;104461;1271;109331;-69
2022/01/04 07:02:23;;;;;;;0.50;0.50;;;;;;;7.68;71.86;98975.12;103188;1271;138607;-69
2022/01/04 07:04:51;;;;;;;0.50;0.50;;;;;;;7.71;71.75;98967.27;103478;1271;95194;-67
2022/01/04 07:07:19;;;;;;;0.50;0.50;;;;;;;7.69;71.75;98964.50;103107;1271;95215;-68
2022/01/04 07:09:46;;;;;;;0.60;0.60;;;;;;;7.64;71.89;98956.57;103005;1271;139829;-71
2022/01/04 07:12:14;;;;;;;0.50;0.50;;;;;;;7.68;71.96;98958.00;103264;1271;109990;-70
2022/01/04 07:14:42;;;;;;;0.50;0.50;;;;;;;7.71;71.86;98954.54;103097;1271;140061;-69
2022/01/04 07:17:09;;;;;;;0.50;0.50;;;;;;;7.69;71.54;98953.17;103393;1272;96370;-70
2022/01/04 07:19:39;;;;;;;0.50;0.50;;;;;;;7.65;71.77;98949.47;103173;1272;139619;-68
2022/01/04 07:22:06;;;;;;;0.50;0.50;;;;;;;7.64;71.59;98947.91;103279;1272;109586;-70
2022/01/04 07:24:34;;;;;;;0.50;0.50;;;;;;;7.58;71.75;98947.08;103283;1271;95316;-68
2022/01/04 07:27:04;;;;;;;0.50;0.50;;;;;;;7.51;71.90;98946.97;103133;1271;139657;-67
2022/01/04 07:29:32;;;;;;;0.50;0.50;;;;;;;7.48;72.08;98947.96;103301;1271;108688;-67
2022/01/04 07:32:01;;;;;;;0.60;0.60;;;;;;;7.45;72.54;98949.30;103124;1271;139031;-70
2022/01/04 07:34:28;;;;;;;0.50;0.50;;;;;;;7.49;72.64;98949.52;103289;1271;95226;-66
2022/01/04 07:36:56;;;;;;;0.50;0.50;;;;;;;7.57;72.20;98943.42;103325;1272;96149;-68
2022/01/04 07:39:24;;;;;;;0.50;0.50;;;;;;;7.56;72.57;98941.66;103195;1271;138434;-67
2022/01/04 07:41:52;;;;;;;0.60;0.60;;;;;;;7.52;72.61;98939.50;103228;1271;108695;-69
2022/01/04 07:44:19;;;;;;;0.50;0.50;;;;;;;7.52;72.63;98937.58;103148;1272;139340;-67
2022/01/04 07:46:47;;;;;;;0.60;0.60;;;;;;;7.55;72.83;98934.29;103328;1271;95632;-67
2022/01/04 07:49:16;;;;;;;0.50;0.50;;;;;;;7.56;72.66;98928.95;103250;1272;108337;-67
2022/01/04 07:51:44;;;;;;;0.50;0.50;;;;;;;7.50;72.86;98928.10;103539;1271;139043;-67
2022/01/04 07:54:11;;;;;;;0.50;0.50;;;;;;;7.50;73.28;98927.95;103311;1271;96416;-67
2022/01/04 07:56:39;;;;;;;0.50;0.50;;;;;;;7.58;73.14;98928.86;103140;1271;137784;-69
2022/01/04 07:59:07;;;;;;;0.50;0.50;;;;;;;7.62;73.24;98923.63;103285;1271;109195;-69
2022/01/04 08:01:35;;;;;;;0.50;0.50;;;;;;;7.65;73.05;98922.27;103007;1271;139007;-68
2022/01/04 08:04:04;;;;;;;0.50;0.50;;;;;;;7.66;73.18;98919.40;103149;1271;95461;-70
2022/01/04 08:06:32;;;;;;;0.50;0.50;;;;;;;7.66;73.05;98910.88;103198;1271;95715;-69
2022/01/04 08:08:59;;;;;;;0.50;0.50;;;;;;;7.73;73.09;98904.11;103165;1271;139508;-68
2022/01/04 08:11:29;;;;;;;0.50;0.50;;;;;;;7.71;72.99;98905.41;104611;1271;109381;-69
2022/01/04 08:13:57;;;;;;;0.50;0.50;;;;;;;7.70;73.00;98906.52;102930;1271;139261;-68
2022/01/04 08:16:24;;;;;;;0.50;0.50;;;;;;;7.69;73.10;98902.65;103129;1271;95124;-68
2022/01/04 08:18:52;;;;;;;0.50;0.50;;;;;;;7.73;73.02;98895.08;103146;1271;107798;-66
2022/01/04 08:21:35;;;;;;;0.50;0.40;;;;;;;7.79;73.00;98887.62;103117;1271;139872;-67
2022/01/04 08:24:04;;;;;;;0.50;0.50;;;;;;;7.86;72.99;98882.91;103192;1271;96256;-67
2022/01/04 08:26:32;;;;;;;0.50;0.50;;;;;;;7.98;73.04;98873.80;103154;1271;138511;-67
2022/01/04 08:29:00;;;;;;;0.50;0.50;;;;;;;8.04;72.71;98865.23;103143;1274;108899;-68
2022/01/04 08:31:28;;;;;;;0.50;0.40;;;;;;;8.05;72.35;98856.20;103107;1271;138917;-68
2022/01/04 08:33:56;;;;;;;0.50;0.50;;;;;;;8.03;72.13;98853.23;103692;1271;95637;-69
2022/01/04 08:36:27;;;;;;;0.50;0.50;;;;;;;8.05;72.26;98855.11;103350;1271;95223;-70
2022/01/04 08:38:58;;;;;;;0.40;0.40;;;;;;;8.11;72.27;98857.87;104267;1271;138245;-68
2022/01/04 08:41:26;;;;;;;0.50;0.40;;;;;;;8.15;71.90;98852.97;103174;1271;109572;-69
2022/01/04 08:43:55;;;;;;;0.50;0.40;;;;;;;8.18;71.91;98846.09;103142;1271;140227;-70
2022/01/04 08:46:24;;;;;;;0.50;0.40;;;;;;;8.17;71.67;98845.77;103224;1271;95739;-66
2022/01/04 08:48:52;;;;;;;0.50;0.40;;;;;;;8.16;71.87;98842.64;103161;1271;111208;-68
2022/01/04 08:51:20;;;;;;;0.50;0.50;;;;;;;8.20;71.67;98834.37;103092;1271;140944;-68
2022/01/04 08:53:48;;;;;;;0.40;0.40;;;;;;;8.24;71.69;98838.78;103287;1271;95213;-66
2022/01/04 08:56:18;;;;;;;0.50;0.50;;;;;;;8.28;71.72;98837.73;103204;1271;137702;-68
2022/01/04 08:58:46;;;;;;;0.50;0.50;;;;;;;8.29;71.63;98833.45;103793;1271;109301;-68
2022/01/04 09:01:13;;;;;;;0.40;0.40;;;;;;;8.33;71.47;98829.02;103205;1271;110177;-67
2022/01/04 09:03:41;;;;;;;0.50;0.40;;;;;;;8.35;71.33;98824.19;103173;1271;138810;-68
2022/01/04 09:06:10;;;;;;;0.50;0.40;;;;;;;8.41;71.18;98822.54;103233;1271;101214;-69
2022/01/04 09:08:38;;;;;;;0.40;0.40;;;;;;;8.36;71.10;98816.53;103225;1271;139639;-70
2022/01/04 09:11:06;;;;;;;0.50;0.40;;;;;;;8.37;71.06;98816.29;103825;1271;109919;-70
2022/01/04 09:13:38;;;;;;;0.40;0.40;;;;;;;8.38;70.88;98822.28;103794;1271;140217;-69
2022/01/04 09:18:49;;;;;;;0.40;0.40;;;;;;;8.33;70.99;98819.50;103897;1271;108334;-68
2022/01/04 09:21:27;;;;;;;0.50;0.40;;;;;;;8.33;71.41;98815.60;103688;1271;139433;-68
2022/01/04 09:23:57;;;;;;;0.50;0.40;;;;;;;8.37;71.25;98822.15;103882;1271;95481;-68
2022/01/04 09:26:26;;;;;;;0.40;0.40;;;;;;;8.42;71.31;98813.98;103765;1271;137917;-67
2022/01/04 09:28:55;;;;;;;0.50;0.50;;;;;;;8.48;71.27;98810.92;103965;1271;109223;-69
2022/01/04 09:31:24;;;;;;;0.50;0.50;;;;;;;8.55;71.30;98810.46;103630;1272;140092;-66
2022/01/04 09:33:53;;;;;;;0.50;0.40;;;;;;;8.65;70.97;98796.73;103957;1271;95224;-67
2022/01/04 09:36:34;;;;;;;0.40;0.40;;;;;;;8.74;70.63;98791.95;105394;1269;95153;-70
2022/01/04 09:39:05;;;;;;;0.50;0.50;;;;;;;8.81;70.77;98794.96;103701;1271;137969;-66
2022/01/04 09:41:33;;;;;;;0.50;0.50;;;;;;;8.92;70.31;98787.75;104031;1273;110200;-66
2022/01/04 09:44:02;;;;;;;0.50;0.40;;;;;;;8.97;70.33;98782.94;103785;1271;139225;-69
2022/01/04 09:46:31;;;;;;;0.40;0.40;;;;;;;9.03;69.75;98779.48;107550;1271;94221;-70
2022/01/04 09:48:59;;;;;;;0.50;0.40;;;;;;;9.00;69.92;98773.39;104221;1271;107732;-68
2022/01/04 09:51:27;;;;;;;0.40;0.40;;;;;;;9.02;69.82;98769.76;103623;1271;140340;-68
2022/01/04 09:53:55;;;;;;;0.50;0.40;;;;;;;9.01;69.47;98764.66;104097;1271;95621;-68
2022/01/04 09:56:23;;;;;;;0.50;0.40;;;;;;;9.00;69.92;98763.30;103758;1271;139411;-67
2022/01/04 09:58:51;;;;;;;0.50;0.40;;;;;;;9.00;69.86;98765.59;103817;1271;108838;-70
2022/01/04 10:01:22;;;;;;;0.50;0.50;;;;;;;8.97;69.76;98758.30;104080;1271;109912;-66
2022/01/04 10:04:10;;;;;;;0.40;0.40;;;;;;;8.99;69.78;98749.04;104142;1271;95183;-68
2022/01/04 10:06:39;;;;;;;0.40;0.40;;;;;;;8.94;69.75;98746.59;103824;1271;95220;-68
2022/01/04 10:09:10;;;;;;;0.50;0.40;;;;;;;9.04;70.24;98748.23;104767;1271;140016;-67
2022/01/04 10:11:43;;;;;;;0.40;0.40;;;;;;;9.09;69.95;98747.16;104380;1271;109742;-67
2022/01/04 10:14:36;;;;;;;0.40;0.40;;;;;;;9.03;69.43;98741.56;103767;1271;140247;-67
2022/01/04 10:17:16;;;;;;;0.40;0.40;;;;;;;8.98;69.70;98730.85;105276;1271;95388;-69
2022/01/04 10:19:49;;;;;;;0.40;0.40;;;;;;;8.99;70.28;98728.33;103768;1271;109167;-67
2022/01/04 10:22:27;;;;;;;0.50;0.40;;;;;;;9.05;70.05;98721.82;103627;1271;138976;-67
2022/01/04 10:25:00;;;;;;;0.40;0.40;;;;;;;9.03;70.07;98719.11;103800;1271;95227;-69
2022/01/04 10:28:01;;;;;;;0.50;0.50;;;;;;;8.99;70.21;98719.64;103657;1271;138122;-68
2022/01/04 10:30:31;;;;;;;0.60;0.60;;;;;;;8.96;70.59;98707.58;103551;1272;108821;-66
2022/01/04 10:33:03;;;;;;;0.50;0.40;;;;;;;9.06;70.96;98703.23;103887;1271;140787;-69
2022/01/04 10:35:48;;;;;;;0.50;0.50;;;;;;;9.11;71.01;98701.20;103751;1271;95901;-66
2022/01/04 10:38:22;;;;;;;0.50;0.40;;;;;;;9.17;71.13;98701.98;103704;1271;139173;-65
2022/01/04 10:40:59;;;;;;;0.50;0.40;;;;;;;9.24;71.07;98707.16;103721;1274;108804;-67
2022/01/04 10:43:30;;;;;;;0.50;0.40;;;;;;;9.25;70.84;98705.67;103847;1271;110449;-66
2022/01/04 10:46:00;;;;;;;0.50;0.40;;;;;;;9.33;70.88;98697.64;104248;1271;138899;-66
2022/01/04 10:48:31;;;;;;;0.40;0.30;;;;;;;9.36;70.70;98693.80;104618;1271;95588;-68
2022/01/04 10:51:11;;;;;;;0.50;0.40;;;;;;;9.31;70.60;98687.85;103814;1271;139993;-66
2022/01/04 10:53:42;;;;;;;0.50;0.40;;;;;;;9.21;70.90;98681.23;103850;1271;109733;-68
2022/01/04 10:56:12;;;;;;;0.50;0.40;;;;;;;9.19;71.10;98681.88;104068;1271;139022;-69
2022/01/04 10:58:48;;;;;;;0.50;0.40;;;;;;;9.13;71.16;98677.20;103883;1271;95245;-67
2022/01/04 11:01:27;;;;;;;0.50;0.40;;;;;;;9.05;71.63;98667.85;103986;1271;108783;-69
2022/01/04 11:03:59;;;;;;;0.50;0.50;;;;;;;9.01;72.23;98663.79;104140;1271;139961;-66
2022/01/04 11:06:28;;;;;;;0.50;0.40;;;;;;;8.96;72.34;98656.04;104820;1271;95528;-68
2022/01/04 11:08:57;;;;;;;0.40;0.40;;;;;;;9.04;72.56;98651.24;104613;1271;139417;-69
2022/01/04 11:11:26;;;;;;;0.40;0.40;;;;;;;9.09;72.49;98651.18;103763;1271;107758;-67
2022/01/04 11:13:54;;;;;;;0.50;0.40;;;;;;;9.04;72.61;98646.30;103660;1271;139877;-67
2022/01/04 11:16:24;;;;;;;0.40;0.40;;;;;;;9.03;72.99;98642.61;104779;1271;95242;-66
2022/01/04 11:18:54;;;;;;;0.40;0.40;;;;;;;9.04;72.74;98640.83;103804;1271;95098;-71
2022/01/04 11:21:42;;;;;;;0.50;0.40;;;;;;;9.00;72.91;98640.49;104697;1271;138644;-69
2022/01/04 11:24:19;;;;;;;0.40;0.40;;;;;;;8.93;72.70;98639.71;103703;1271;108514;-69
2022/01/04 11:26:49;;;;;;;0.40;0.30;;;;;;;8.86;73.18;98635.47;103706;1271;140426;-68
2022/01/04 11:29:17;;;;;;;0.40;0.40;;;;;;;8.85;73.19;98627.52;103623;1271;95705;-66
2022/01/04 11:32:08;;;;;;;0.40;0.40;;;;;;;8.86;73.26;98618.11;103690;1271;109332;-69
2022/01/04 11:34:42;;;;;;;0.50;0.40;;;;;;;8.83;73.55;98609.05;103698;1271;140080;-67
2022/01/04 11:37:17;;;;;;;0.40;0.40;;;;;;;8.75;73.55;98606.80;103847;1270;95437;-69
2022/01/04 11:39:46;;;;;;;0.40;0.40;;;;;;;8.74;73.75;98603.33;103937;1271;138789;-68
2022/01/04 11:42:34;;;;;;;0.50;0.40;;;;;;;8.77;73.58;98596.08;103741;1271;108952;-68
2022/01/04 11:45:09;;;;;;;0.50;0.30;;;;;;;8.80;73.50;98588.52;103309;1271;141060;-69